createdAt,value
2022-08-07T00:02:36.400Z,16.90
2022-08-07T00:05:04.277Z,16.80
2022-08-07T00:07:40.083Z,16.80
2022-08-07T00:10:25.663Z,16.80
2022-08-07T00:12:59.909Z,16.90
2022-08-07T00:15:37.925Z,16.80
2022-08-07T00:18:18.705Z,16.70
2022-08-07T00:20:49.256Z,16.70
2022-08-07T00:23:17.517Z,16.70
2022-08-07T00:25:58.126Z,16.70
2022-08-07T00:28:31.805Z,16.70
2022-08-07T00:31:04.553Z,16.60
2022-08-07T00:33:35.580Z,16.60
2022-08-07T00:36:04.950Z,16.60
2022-08-07T00:38:34.098Z,16.70
2022-08-07T00:41:04.291Z,16.70
2022-08-07T00:44:00.471Z,16.70
2022-08-07T00:46:26.175Z,16.70
2022-08-07T00:48:54.125Z,16.60
2022-08-07T00:51:22.532Z,16.60
2022-08-07T00:53:56.530Z,16.60
2022-08-07T00:56:30.212Z,16.60
2022-08-07T00:59:02.904Z,16.50
2022-08-07T01:01:41.539Z,16.60
2022-08-07T01:04:24.526Z,16.70
2022-08-07T01:06:53.810Z,16.70
2022-08-07T01:10:04.921Z,16.60
2022-08-07T01:12:29.618Z,16.60
2022-08-07T01:15:01.481Z,16.60
2022-08-07T01:17:32.352Z,16.60
2022-08-07T01:20:08.055Z,16.50
2022-08-07T01:22:46.511Z,16.50
2022-08-07T01:25:54.695Z,16.40
2022-08-07T01:28:05.351Z,16.40
2022-08-07T01:30:34.034Z,16.40
2022-08-07T01:33:02.395Z,16.40
2022-08-07T01:35:52.916Z,16.40
2022-08-07T01:38:25.022Z,16.40
2022-08-07T01:40:58.200Z,16.40
2022-08-07T01:43:27.162Z,16.40
2022-08-07T01:46:04.417Z,16.40
2022-08-07T01:48:34.089Z,16.40
2022-08-07T01:51:24.474Z,16.40
2022-08-07T01:54:08.758Z,16.40
2022-08-07T01:56:49.277Z,16.40
2022-08-07T01:59:23.798Z,16.30
2022-08-07T02:02:06.215Z,16.30
2022-08-07T02:04:55.821Z,16.30
2022-08-07T02:07:35.757Z,16.40
2022-08-07T02:10:09.130Z,16.30
2022-08-07T02:12:50.056Z,16.30
2022-08-07T02:15:25.469Z,16.20
2022-08-07T02:17:57.738Z,16.20
2022-08-07T02:20:31.196Z,16.20
2022-08-07T02:23:04.597Z,16.20
2022-08-07T02:26:26.742Z,16.20
2022-08-07T02:28:29.809Z,16.20
2022-08-07T02:31:18.720Z,16.20
2022-08-07T02:34:01.737Z,16.10
2022-08-07T02:36:34.806Z,16.10
2022-08-07T02:39:42.939Z,16.10
2022-08-07T02:42:10.106Z,16.20
2022-08-07T02:44:47.858Z,16.20
2022-08-07T02:47:19.709Z,16.20
2022-08-07T02:50:14.558Z,16.10
2022-08-07T02:52:48.626Z,16.10
2022-08-07T02:55:28.491Z,16.00
2022-08-07T02:58:16.405Z,16.00
2022-08-07T03:00:52.930Z,16.00
2022-08-07T03:03:23.413Z,16.00
2022-08-07T03:05:55.755Z,16.00
2022-08-07T03:08:26.717Z,16.00
2022-08-07T03:10:58.417Z,16.10
2022-08-07T03:13:39.048Z,16.10
2022-08-07T03:16:18.295Z,16.00
2022-08-07T03:18:53.142Z,15.90
2022-08-07T03:21:24.431Z,15.90
2022-08-07T03:24:18.317Z,16.00
2022-08-07T03:26:51.348Z,16.00
2022-08-07T03:29:33.758Z,16.00
2022-08-07T03:32:13.130Z,16.00
2022-08-07T03:34:47.508Z,16.00
2022-08-07T03:37:37.236Z,16.00
2022-08-07T03:40:14.986Z,15.90
2022-08-07T03:42:44.996Z,15.90
2022-08-07T03:45:29.391Z,15.90
2022-08-07T03:48:04.217Z,15.90
2022-08-07T03:50:38.776Z,16.00
2022-08-07T03:53:07.433Z,16.00
2022-08-07T03:55:53.139Z,16.00
2022-08-07T03:59:05.321Z,16.10
2022-08-07T04:01:19.240Z,16.00
2022-08-07T04:03:55.252Z,16.00
2022-08-07T04:06:37.281Z,16.10
2022-08-07T04:09:15.650Z,16.10
2022-08-07T04:12:23.628Z,16.10
2022-08-07T04:14:38.683Z,16.10
2022-08-07T04:17:20.962Z,16.10
2022-08-07T04:19:54.118Z,16.10
2022-08-07T04:22:29.318Z,16.20
2022-08-07T04:25:01.931Z,16.20
2022-08-07T04:27:35.694Z,16.10
2022-08-07T04:30:21.518Z,16.20
2022-08-07T04:33:07.378Z,16.20
2022-08-07T04:35:38.274Z,16.20
2022-08-07T04:38:13.348Z,16.20
2022-08-07T04:40:51.898Z,16.20
2022-08-07T04:44:09.922Z,16.40
2022-08-07T04:46:29.329Z,16.50
2022-08-07T04:49:17.700Z,16.50
2022-08-07T04:51:56.926Z,16.60
2022-08-07T04:54:32.669Z,16.80
2022-08-07T04:58:14.296Z,16.80
2022-08-07T05:00:12.729Z,17.00
2022-08-07T05:02:54.739Z,17.10
2022-08-07T05:05:53.889Z,17.30
2022-08-07T05:08:59.850Z,17.50
2022-08-07T05:11:26.284Z,17.60
2022-08-07T05:14:52.714Z,17.70
2022-08-07T05:16:52.599Z,17.80
2022-08-07T05:19:25.678Z,17.80
2022-08-07T05:22:05.663Z,18.10
2022-08-07T05:24:40.868Z,18.70
2022-08-07T05:27:14.464Z,18.50
2022-08-07T05:30:03.105Z,18.70
2022-08-07T05:32:33.160Z,18.60
2022-08-07T05:35:03.708Z,19.20
2022-08-07T05:37:40.865Z,19.90
2022-08-07T05:40:19.107Z,19.90
2022-08-07T05:42:56.092Z,19.90
2022-08-07T05:45:47.750Z,20.10
2022-08-07T05:48:16.621Z,20.30
2022-08-07T05:50:47.496Z,20.20
2022-08-07T05:54:11.925Z,20.00
2022-08-07T05:56:12.516Z,19.50
2022-08-07T05:58:52.399Z,19.50
2022-08-07T06:01:27.169Z,19.30
2022-08-07T06:04:05.480Z,18.60
2022-08-07T06:06:38.497Z,18.60
2022-08-07T06:09:18.590Z,19.30
2022-08-07T06:11:49.726Z,19.50
2022-08-07T06:14:28.502Z,19.30
2022-08-07T06:23:04.101Z,21.80
2022-08-07T06:25:54.712Z,23.40
2022-08-07T06:28:28.310Z,23.80
2022-08-07T06:30:58.692Z,23.70
2022-08-07T06:33:29.536Z,23.50
2022-08-07T06:36:12.236Z,24.60
2022-08-07T06:40:18.265Z,24.20
2022-08-07T06:42:01.226Z,25.90
2022-08-07T06:44:52.956Z,26.40
2022-08-07T06:47:22.766Z,26.10
2022-08-07T06:49:58.703Z,26.40
2022-08-07T06:52:37.006Z,26.20
2022-08-07T06:55:33.521Z,25.90
2022-08-07T06:58:10.574Z,26.70
2022-08-07T07:00:53.141Z,28.00
2022-08-07T07:03:26.530Z,27.60
2022-08-07T07:06:11.091Z,27.70
2022-08-07T07:08:39.656Z,27.40
2022-08-07T07:12:06.734Z,27.10
2022-08-07T07:14:04.956Z,27.10
2022-08-07T07:16:49.418Z,26.50
2022-08-07T07:19:57.408Z,25.40
2022-08-07T07:22:36.364Z,27.50
2022-08-07T07:25:13.898Z,25.90
2022-08-07T07:27:58.466Z,25.80
2022-08-07T07:30:38.363Z,26.10
2022-08-07T07:33:11.540Z,26.20
2022-08-07T07:35:50.657Z,26.80
2022-08-07T07:38:31.571Z,27.30
2022-08-07T07:41:03.593Z,27.10
2022-08-07T07:44:13.947Z,27.90
2022-08-07T07:46:37.999Z,27.50
2022-08-07T07:50:33.755Z,27.50
2022-08-07T07:52:05.766Z,27.70
2022-08-07T07:54:35.863Z,29.30
2022-08-07T07:57:04.369Z,29.00
2022-08-07T07:59:52.828Z,30.20
2022-08-07T08:02:35.325Z,29.60
2022-08-07T08:05:14.231Z,29.20
2022-08-07T08:08:00.043Z,28.60
2022-08-07T08:10:37.680Z,26.40
2022-08-07T08:13:10.502Z,25.20
2022-08-07T08:15:58.734Z,24.80
2022-08-07T08:18:30.976Z,24.90
2022-08-07T08:21:02.637Z,25.70
2022-08-07T08:23:51.616Z,25.70
2022-08-07T08:26:38.633Z,28.10
2022-08-07T08:29:08.396Z,29.10
2022-08-07T08:31:58.735Z,29.40
2022-08-07T08:34:37.326Z,30.40
2022-08-07T08:37:09.884Z,30.10
2022-08-07T08:39:58.466Z,30.10
2022-08-07T08:42:31.740Z,30.00
2022-08-07T08:45:13.346Z,31.40
2022-08-07T08:47:52.099Z,32.60
2022-08-07T08:50:35.242Z,32.60
2022-08-07T08:53:16.563Z,30.90
2022-08-07T08:55:55.143Z,32.10
2022-08-07T08:58:34.978Z,31.90
2022-08-07T09:01:19.224Z,31.00
2022-08-07T09:03:57.114Z,29.80
2022-08-07T09:06:38.403Z,29.50
2022-08-07T09:09:33.035Z,28.70
2022-08-07T09:12:30.681Z,28.60
2022-08-07T09:16:20.631Z,27.90
2022-08-07T09:18:34.986Z,28.50
2022-08-07T09:21:13.732Z,29.70
2022-08-07T09:24:32.814Z,30.80
2022-08-07T09:27:11.913Z,30.90
2022-08-07T09:30:03.470Z,30.90
2022-08-07T09:32:52.095Z,30.00
2022-08-07T09:36:03.131Z,28.00
2022-08-07T09:38:25.534Z,28.10
2022-08-07T09:41:05.847Z,26.70
2022-08-07T09:44:06.394Z,27.50
2022-08-07T09:47:51.090Z,27.70
2022-08-07T09:50:02.397Z,28.70
2022-08-07T09:52:48.619Z,27.20
2022-08-07T09:56:02.348Z,26.80
2022-08-07T09:58:52.120Z,27.60
2022-08-07T10:01:52.026Z,27.80
2022-08-07T10:04:54.943Z,27.50
2022-08-07T10:07:52.846Z,27.70
2022-08-07T10:11:00.283Z,27.70
2022-08-07T10:14:01.003Z,28.80
2022-08-07T10:16:51.851Z,29.60
2022-08-07T10:19:37.780Z,29.10
2022-08-07T10:22:43.265Z,28.60
2022-08-07T10:25:42.314Z,29.60
2022-08-07T10:28:49.436Z,31.50
2022-08-07T10:31:39.364Z,30.30
2022-08-07T10:34:27.225Z,29.50
2022-08-07T10:37:12.623Z,30.10
2022-08-07T10:40:03.228Z,31.10
2022-08-07T10:42:39.447Z,31.40
2022-08-07T10:45:44.551Z,28.60
2022-08-07T10:48:18.911Z,29.10
2022-08-07T10:50:51.463Z,29.20
2022-08-07T10:53:28.558Z,30.00
2022-08-07T10:56:31.256Z,31.00
2022-08-07T10:59:10.953Z,30.40
2022-08-07T11:01:52.016Z,30.80
2022-08-07T11:04:50.397Z,32.20
2022-08-07T11:08:00.285Z,33.60
2022-08-07T11:10:20.627Z,34.70
2022-08-07T11:13:02.034Z,31.50
2022-08-07T11:15:36.835Z,31.10
2022-08-07T11:18:15.483Z,31.10
2022-08-07T11:20:53.356Z,31.10
2022-08-07T11:23:30.623Z,30.60
2022-08-07T11:26:09.277Z,30.10
2022-08-07T11:28:53.568Z,32.20
2022-08-07T11:31:30.455Z,33.40
2022-08-07T11:34:12.112Z,33.40
2022-08-07T11:36:56.656Z,32.40
2022-08-07T11:40:00.473Z,34.40
2022-08-07T11:42:40.340Z,34.30
2022-08-07T11:45:20.321Z,34.70
2022-08-07T11:48:30.037Z,34.50
2022-08-07T11:51:41.938Z,35.30
2022-08-07T11:54:22.143Z,34.50
2022-08-07T11:57:04.454Z,30.80
2022-08-07T12:00:11.912Z,28.10
2022-08-07T12:02:52.667Z,28.60
2022-08-07T12:05:47.253Z,29.40
2022-08-07T12:08:26.110Z,28.80
2022-08-07T12:11:21.201Z,27.60
2022-08-07T12:13:54.900Z,27.70
2022-08-07T12:16:30.624Z,27.20
2022-08-07T12:19:14.772Z,26.90
2022-08-07T12:22:37.156Z,25.90
2022-08-07T12:26:00.859Z,26.50
2022-08-07T12:28:09.546Z,26.40
2022-08-07T12:30:46.945Z,26.10
2022-08-07T12:33:28.406Z,25.60
2022-08-07T12:36:02.238Z,25.40
2022-08-07T12:38:42.496Z,25.10
2022-08-07T12:41:12.627Z,25.40
2022-08-07T12:44:01.360Z,25.70
2022-08-07T12:46:46.086Z,25.10
2022-08-07T12:49:39.510Z,25.10
2022-08-07T12:52:17.931Z,25.20
2022-08-07T12:54:57.325Z,25.00
2022-08-07T12:57:38.917Z,25.00
2022-08-07T13:00:32.639Z,25.00
2022-08-07T13:03:56.104Z,25.00
2022-08-07T13:06:27.665Z,25.00
2022-08-07T13:09:02.621Z,25.30
2022-08-07T13:12:02.810Z,25.00
2022-08-07T13:14:50.910Z,24.60
2022-08-07T13:17:40.846Z,24.40
2022-08-07T13:20:17.755Z,24.50
2022-08-07T13:22:53.617Z,24.90
2022-08-07T13:25:39.214Z,24.80
2022-08-07T13:28:18.763Z,24.90
2022-08-07T13:31:01.705Z,24.90
2022-08-07T13:34:30.565Z,24.60
2022-08-07T13:36:40.488Z,24.80
2022-08-07T13:39:28.625Z,24.70
2022-08-07T13:42:07.395Z,25.00
2022-08-07T13:44:39.369Z,25.10
2022-08-07T13:47:10.404Z,24.70
2022-08-07T13:50:33.289Z,24.70
2022-08-07T13:52:43.029Z,24.90
2022-08-07T13:55:19.532Z,24.90
2022-08-07T13:58:28.044Z,25.00
2022-08-07T14:01:07.990Z,24.80
2022-08-07T14:04:07.329Z,25.00
2022-08-07T14:06:36.170Z,24.50
2022-08-07T14:09:05.765Z,24.60
2022-08-07T14:11:53.620Z,24.60
2022-08-07T14:14:32.876Z,24.40
2022-08-07T14:17:32.251Z,24.70
2022-08-07T14:20:40.965Z,24.90
2022-08-07T14:22:52.332Z,25.40
2022-08-07T14:25:29.378Z,24.80
2022-08-07T14:30:59.510Z,25.10
2022-08-07T14:33:45.050Z,25.10
2022-08-07T14:36:15.047Z,25.00
2022-08-07T14:42:22.488Z,25.00
2022-08-07T14:44:30.604Z,25.10
2022-08-07T14:49:58.538Z,25.20
2022-08-07T14:52:28.873Z,25.00
2022-08-07T14:55:00.265Z,25.00
2022-08-07T14:57:58.780Z,24.70
2022-08-07T15:00:30.345Z,24.60
2022-08-07T15:02:59.920Z,24.90
2022-08-07T15:05:30.166Z,24.80
2022-08-07T15:07:59.910Z,24.70
2022-08-07T15:10:30.346Z,24.50
2022-08-07T15:13:11.460Z,24.40
2022-08-07T15:15:43.614Z,24.30
2022-08-07T15:18:28.558Z,24.30
2022-08-07T15:21:08.206Z,24.00
2022-08-07T15:25:13.218Z,24.30
2022-08-07T15:26:38.166Z,24.30
2022-08-07T15:30:08.531Z,24.50
2022-08-07T15:34:57.037Z,24.30
2022-08-07T15:37:28.338Z,24.30
2022-08-07T15:40:00.263Z,24.40
2022-08-07T15:42:53.806Z,24.20
2022-08-07T15:45:58.296Z,24.00
2022-08-07T15:48:30.140Z,24.00
2022-08-07T15:51:08.504Z,24.20
2022-08-07T15:53:51.771Z,24.30
2022-08-07T15:56:24.140Z,24.00
2022-08-07T15:58:57.879Z,24.10
2022-08-07T16:01:38.438Z,23.90
2022-08-07T16:04:14.572Z,23.80
2022-08-07T16:06:46.265Z,24.00
2022-08-07T16:09:23.216Z,23.90
2022-08-07T16:12:12.038Z,23.70
2022-08-07T16:15:55.271Z,23.70
2022-08-07T16:18:14.341Z,23.70
2022-08-07T16:22:03.226Z,23.70
2022-08-07T16:24:02.057Z,23.40
2022-08-07T16:26:59.612Z,23.40
2022-08-07T16:30:10.583Z,23.20
2022-08-07T16:32:54.289Z,23.20
2022-08-07T16:35:52.365Z,23.20
2022-08-07T16:38:57.487Z,23.00
2022-08-07T16:41:41.631Z,23.00
2022-08-07T16:48:07.112Z,22.90
2022-08-07T16:51:13.397Z,22.60
2022-08-07T16:54:09.076Z,22.80
2022-08-07T16:56:53.323Z,22.70
2022-08-07T16:59:46.927Z,22.60
2022-08-07T17:03:05.882Z,22.50
2022-08-07T17:06:19.850Z,22.40
2022-08-07T17:09:08.823Z,22.30
2022-08-07T17:12:04.679Z,22.40
2022-08-07T17:14:32.708Z,22.20
2022-08-07T17:17:03.588Z,22.10
2022-08-07T17:20:02.015Z,22.10
2022-08-07T17:22:37.701Z,22.00
2022-08-07T17:25:14.208Z,22.00
2022-08-07T17:27:59.071Z,21.90
2022-08-07T17:30:36.311Z,21.80
2022-08-07T17:34:09.529Z,21.80
2022-08-07T17:36:26.242Z,21.80
2022-08-07T17:39:10.667Z,21.80
2022-08-07T17:42:02.580Z,21.70
2022-08-07T17:44:45.317Z,21.60
2022-08-07T17:47:41.960Z,21.50
2022-08-07T17:50:16.738Z,21.50
2022-08-07T17:52:53.128Z,21.60
2022-08-07T17:56:01.146Z,21.60
2022-08-07T17:58:31.198Z,21.50
2022-08-07T18:01:03.649Z,21.40
2022-08-07T18:04:16.058Z,21.40
2022-08-07T18:07:19.403Z,21.30
2022-08-07T18:09:48.398Z,21.30
2022-08-07T18:12:42.672Z,21.30
2022-08-07T18:15:13.931Z,21.20
2022-08-07T18:18:47.599Z,21.10
2022-08-07T18:21:06.350Z,21.10
2022-08-07T18:23:56.094Z,21.00
2022-08-07T18:26:40.524Z,20.80
2022-08-07T18:30:05.336Z,20.80
2022-08-07T18:32:22.300Z,20.70
2022-08-07T18:38:56.457Z,20.70
2022-08-07T18:41:09.265Z,20.60
2022-08-07T18:43:49.984Z,20.60
2022-08-07T18:46:32.940Z,20.40
2022-08-07T18:50:19.415Z,20.40
2022-08-07T18:52:52.057Z,20.30
2022-08-07T18:55:42.070Z,20.30
2022-08-07T18:58:26.343Z,20.30
2022-08-07T19:01:06.711Z,20.30
2022-08-07T19:03:49.566Z,20.30
2022-08-07T19:06:33.848Z,20.30
2022-08-07T19:09:09.619Z,20.20
2022-08-07T19:12:11.880Z,20.20
2022-08-07T19:15:02.320Z,20.20
2022-08-07T19:18:03.296Z,20.20
2022-08-07T19:20:38.875Z,20.10
2022-08-07T19:23:59.111Z,20.10
2022-08-07T19:26:29.364Z,20.00
2022-08-07T19:30:55.365Z,20.00
2022-08-07T19:32:10.703Z,20.00
2022-08-07T19:34:47.811Z,20.00
2022-08-07T19:37:20.013Z,20.00
2022-08-07T19:40:03.716Z,20.00
2022-08-07T19:42:40.092Z,19.90
2022-08-07T19:46:06.282Z,19.90
2022-08-07T19:48:03.308Z,19.70
2022-08-07T19:50:43.940Z,19.70
2022-08-07T19:54:34.123Z,19.70
2022-08-07T19:56:15.088Z,19.50
2022-08-07T19:58:58.304Z,19.50
2022-08-07T20:01:56.247Z,19.40
2022-08-07T20:04:32.133Z,19.40
2022-08-07T20:07:09.368Z,19.30
2022-08-07T20:10:36.999Z,19.30
2022-08-07T20:12:34.836Z,19.20
2022-08-07T20:15:09.679Z,19.20
2022-08-07T20:17:46.187Z,19.10
2022-08-07T20:20:30.579Z,19.10
2022-08-07T20:23:22.963Z,19.00
2022-08-07T20:25:53.346Z,18.90
2022-08-07T20:28:29.768Z,18.90
2022-08-07T20:30:59.595Z,18.80
2022-08-07T20:33:38.126Z,18.70
2022-08-07T20:36:07.682Z,18.70
2022-08-07T20:38:36.796Z,18.60
2022-08-07T20:41:27.130Z,18.60
2022-08-07T20:43:57.485Z,18.50
2022-08-07T20:46:32.213Z,18.40
2022-08-07T20:49:59.477Z,18.40
2022-08-07T20:51:53.311Z,18.40
2022-08-07T20:54:32.054Z,18.30
2022-08-07T20:57:04.255Z,18.30
2022-08-07T21:00:07.274Z,18.20
2022-08-07T21:02:54.306Z,18.00
2022-08-07T21:05:52.898Z,17.90
2022-08-07T21:08:37.146Z,17.90
2022-08-07T21:11:10.955Z,17.90
2022-08-07T21:13:43.858Z,17.80
2022-08-07T21:16:31.351Z,17.70
2022-08-07T21:19:00.740Z,17.60
2022-08-07T21:21:57.187Z,17.60
2022-08-07T21:24:28.378Z,17.60
2022-08-07T21:27:07.030Z,17.60
2022-08-07T21:29:52.874Z,17.60
2022-08-07T21:32:48.540Z,17.50
2022-08-07T21:35:34.692Z,17.40
2022-08-07T21:38:19.776Z,17.30
2022-08-07T21:41:05.792Z,17.20
2022-08-07T21:43:55.482Z,17.20
2022-08-07T21:46:31.679Z,17.20
2022-08-07T21:49:14.966Z,17.30
2022-08-07T21:51:55.617Z,17.20
2022-08-07T21:54:39.019Z,17.00
2022-08-07T21:57:39.257Z,17.00
2022-08-07T22:00:22.396Z,16.80
2022-08-07T22:02:57.933Z,16.70
2022-08-07T22:05:44.713Z,16.70
2022-08-07T22:08:18.855Z,16.70
2022-08-07T22:10:54.714Z,16.60
2022-08-07T22:13:52.352Z,16.50
2022-08-07T22:16:38.451Z,16.30
2022-08-07T22:19:12.915Z,16.20
2022-08-07T22:22:04.531Z,16.30
2022-08-07T22:24:37.435Z,16.30
2022-08-07T22:27:16.035Z,16.30
2022-08-07T22:29:50.266Z,16.20
2022-08-07T22:32:25.255Z,16.10
2022-08-07T22:34:56.288Z,16.10
2022-08-07T22:38:01.731Z,16.20
2022-08-07T22:40:29.298Z,16.10
2022-08-07T22:43:08.160Z,16.00
2022-08-07T22:46:21.118Z,15.90
2022-08-07T22:49:07.766Z,16.00
2022-08-07T22:51:57.400Z,16.00
2022-08-07T22:54:54.841Z,16.10
2022-08-07T22:57:43.214Z,16.10
2022-08-07T23:00:17.833Z,16.10
2022-08-07T23:02:57.994Z,16.00
2022-08-07T23:06:09.689Z,16.00
2022-08-07T23:08:51.615Z,15.90
2022-08-07T23:11:45.994Z,15.80
2022-08-07T23:14:31.698Z,15.60
2022-08-07T23:17:27.671Z,15.60
2022-08-07T23:20:51.281Z,15.60
2022-08-07T23:24:05.782Z,15.60
2022-08-07T23:26:25.154Z,15.60
2022-08-07T23:29:43.296Z,15.50
2022-08-07T23:34:23.454Z,15.50
2022-08-07T23:35:14.396Z,15.40
2022-08-07T23:38:01.846Z,15.30
2022-08-07T23:40:36.886Z,15.30
2022-08-07T23:43:52.683Z,15.30
2022-08-07T23:46:43.944Z,15.40
2022-08-07T23:49:53.156Z,15.30
2022-08-07T23:53:00.394Z,15.30
2022-08-07T23:55:53.267Z,15.20
2022-08-07T23:58:26.288Z,15.00
